Language selection

My Weather Profile Weather Topics  | 

Bowie - southern half: Past 24 Hour Conditions

 

South Hecate Strait - 46185

04:00 PM PDT 25 September 2022Buoy position: 52.53N 130.09W
Disclaimer

This table is a summary of hourly weather conditions for the past 24 hours.
Please note that these observations might not always be representative of weather conditions over their associated marine area.

Date / Time
(PDT)
Wind(knots) Wave height(m) Wave period(s) Pressure(kPa) Air tempC) Water tempC)
25 September 2022
16:00 SE 13 gust 16 1.3 18.3 102.1 13 13
15:00 SE 15 gust 17 1.3 5.1 102.1 13 13
14:00 SE 15 gust 18 N/A 18.3 102.1 13 13
13:00 SE 17 gust 20 1.4 18.3 102.1 13 13
12:00 SSE 17 gust 21 1.4 5.1 102.1 13 13
11:00 SE 18 gust 21 1.4 4.3 102.1 13 13
10:00 SE 17 gust 20 1.3 18.3 102.1 13 13
9:00 SE 17 gust 21 1.3 18.3 102.0 13 13
8:00 SSE 17 gust 21 1.2 5.1 102.0 13 12
7:00 SSE 15 gust 18 1.2 5.8 102.1 13 12
6:00 SE 11 gust 12 1.2 6.0 102.1 13 12
5:00 SSE 12 gust 14 1.3 6.0 102.1 13 12
4:00 SSE 12 gust 15 N/A 5.7 102.1 14 12
3:00 SSE 13 gust 16 1.2 6.4 102.1 14 12
2:00 SSE 11 gust 14 1.2 6.6 102.1 14 12
1:00 SSE 9 gust 11 1.2 5.8 102.1 13 12
0:00 SSE 12 gust 13 1.4 6.2 102.1 13 12
24 September 2022
23:00 SE 11 gust 13 1.5 6.0 102.1 13 12
22:00 SE 8 gust 10 1.5 5.8 102.2 13 12
21:00 SE 13 gust 16 1.5 6.4 102.2 13 12
20:00 SE 14 gust 17 1.4 6.2 102.2 13 12
19:00 SE 15 gust 18 1.6 6.7 102.2 13 13
18:00 SSE 13 gust 16 1.6 6.7 102.2 13 13
17:00 SSE 13 gust 16 1.6 7.1 102.2 13 13
16:00 SSE 14 gust 16 2.0 7.3 102.2 13 13

Zoom-in to make a selection

Map of Pacific - North Coast marine weather areas Middle Nomad - 46004 South Nomad - 46036 Dixon Entrance Central - 46145 South Moresby - 46147 Nanakwa Shoal - 46181 North Hecate Strait - 46183 North Nomad - 46184 South Hecate Strait - 46185 West Sea Otter - 46204 West Dixon Entrance - 46205 East Dellwood - 46207 West Moresby - 46208 Sartine Island Cape St.James Kindakun Rocks Langara Island Masset Municipal Airport Rose Spit Sandspit Airport Bella Bella Airport Bella Coola Airport Bonilla Island Cathedral Point Cumshewa Island Grey Islet Holland Rock Lucy Islands Lightstation Prince Rupert Airport
Legend:
buoy Buoy
land station Land Station

Pacific - North Coast Area

Another Region

What we are doing

Date modified: